sensor_id;sensor_type;location;lat;lon;timestamp;P1;durP1;ratioP1;P2;durP2;ratioP2
8230;SDS011;4156;50.908;6.974;2022-08-20T00:00:05;3.90;;;2.27;;
8230;SDS011;4156;50.908;6.974;2022-08-20T00:02:46;5.40;;;2.40;;
8230;SDS011;4156;50.908;6.974;2022-08-20T00:05:14;3.47;;;2.33;;
8230;SDS011;4156;50.908;6.974;2022-08-20T00:07:41;4.10;;;2.10;;
8230;SDS011;4156;50.908;6.974;2022-08-20T00:10:07;5.50;;;2.47;;
8230;SDS011;4156;50.908;6.974;2022-08-20T00:12:34;2.90;;;2.37;;
8230;SDS011;4156;50.908;6.974;2022-08-20T00:15:00;2.60;;;2.20;;
8230;SDS011;4156;50.908;6.974;2022-08-20T00:17:28;4.07;;;2.70;;
8230;SDS011;4156;50.908;6.974;2022-08-20T00:20:01;4.50;;;2.90;;
8230;SDS011;4156;50.908;6.974;2022-08-20T00:22:28;3.30;;;2.30;;
8230;SDS011;4156;50.908;6.974;2022-08-20T00:24:54;4.93;;;2.50;;
8230;SDS011;4156;50.908;6.974;2022-08-20T00:27:19;3.50;;;2.70;;
8230;SDS011;4156;50.908;6.974;2022-08-20T00:29:45;2.73;;;2.40;;
8230;SDS011;4156;50.908;6.974;2022-08-20T00:32:11;5.43;;;2.80;;
8230;SDS011;4156;50.908;6.974;2022-08-20T00:34:36;5.17;;;2.83;;
8230;SDS011;4156;50.908;6.974;2022-08-20T00:37:02;3.47;;;2.50;;
8230;SDS011;4156;50.908;6.974;2022-08-20T00:39:27;3.10;;;2.70;;
8230;SDS011;4156;50.908;6.974;2022-08-20T00:41:53;3.90;;;2.80;;
8230;SDS011;4156;50.908;6.974;2022-08-20T00:44:19;3.23;;;2.90;;
8230;SDS011;4156;50.908;6.974;2022-08-20T00:46:48;3.70;;;2.53;;
8230;SDS011;4156;50.908;6.974;2022-08-20T00:49:16;3.63;;;2.73;;
8230;SDS011;4156;50.908;6.974;2022-08-20T00:51:47;3.07;;;2.70;;
8230;SDS011;4156;50.908;6.974;2022-08-20T00:56:42;3.60;;;2.80;;
8230;SDS011;4156;50.908;6.974;2022-08-20T00:59:14;3.07;;;2.77;;
8230;SDS011;4156;50.908;6.974;2022-08-20T01:01:43;3.07;;;2.70;;
8230;SDS011;4156;50.908;6.974;2022-08-20T01:04:09;3.93;;;3.23;;
8230;SDS011;4156;50.908;6.974;2022-08-20T01:06:35;3.10;;;2.67;;
8230;SDS011;4156;50.908;6.974;2022-08-20T01:09:03;3.63;;;2.93;;
8230;SDS011;4156;50.908;6.974;2022-08-20T01:11:29;3.83;;;3.00;;
8230;SDS011;4156;50.908;6.974;2022-08-20T01:13:59;3.50;;;2.70;;
8230;SDS011;4156;50.908;6.974;2022-08-20T01:16:33;2.50;;;2.30;;
8230;SDS011;4156;50.908;6.974;2022-08-20T01:18:59;4.53;;;2.60;;
8230;SDS011;4156;50.908;6.974;2022-08-20T01:21:26;2.60;;;2.40;;
8230;SDS011;4156;50.908;6.974;2022-08-20T01:24:02;3.40;;;2.70;;
8230;SDS011;4156;50.908;6.974;2022-08-20T01:26:37;5.73;;;3.07;;
8230;SDS011;4156;50.908;6.974;2022-08-20T01:29:06;3.77;;;2.60;;
8230;SDS011;4156;50.908;6.974;2022-08-20T01:31:35;2.87;;;2.40;;
8230;SDS011;4156;50.908;6.974;2022-08-20T01:34:03;3.93;;;2.43;;
8230;SDS011;4156;50.908;6.974;2022-08-20T01:36:35;3.80;;;2.60;;
8230;SDS011;4156;50.908;6.974;2022-08-20T01:39:08;3.57;;;2.50;;
8230;SDS011;4156;50.908;6.974;2022-08-20T01:44:32;3.03;;;2.37;;
8230;SDS011;4156;50.908;6.974;2022-08-20T01:47:07;3.13;;;2.40;;
8230;SDS011;4156;50.908;6.974;2022-08-20T01:49:53;2.50;;;2.30;;
8230;SDS011;4156;50.908;6.974;2022-08-20T01:52:27;2.47;;;2.20;;
8230;SDS011;4156;50.908;6.974;2022-08-20T01:55:12;4.83;;;2.43;;
8230;SDS011;4156;50.908;6.974;2022-08-20T01:57:39;3.13;;;2.33;;
8230;SDS011;4156;50.908;6.974;2022-08-20T02:00:08;3.83;;;2.23;;
8230;SDS011;4156;50.908;6.974;2022-08-20T02:02:39;3.23;;;2.90;;
8230;SDS011;4156;50.908;6.974;2022-08-20T02:05:05;2.70;;;2.50;;
8230;SDS011;4156;50.908;6.974;2022-08-20T02:07:31;3.23;;;2.60;;
8230;SDS011;4156;50.908;6.974;2022-08-20T02:09:57;2.70;;;2.40;;
8230;SDS011;4156;50.908;6.974;2022-08-20T02:12:23;3.43;;;2.83;;
8230;SDS011;4156;50.908;6.974;2022-08-20T02:14:50;6.40;;;3.00;;
8230;SDS011;4156;50.908;6.974;2022-08-20T02:17:17;3.23;;;2.27;;
8230;SDS011;4156;50.908;6.974;2022-08-20T02:20:32;2.93;;;2.30;;
8230;SDS011;4156;50.908;6.974;2022-08-20T02:22:36;3.47;;;2.40;;
8230;SDS011;4156;50.908;6.974;2022-08-20T02:25:07;3.27;;;2.30;;
8230;SDS011;4156;50.908;6.974;2022-08-20T02:27:33;3.73;;;2.40;;
8230;SDS011;4156;50.908;6.974;2022-08-20T02:30:00;3.87;;;2.37;;
8230;SDS011;4156;50.908;6.974;2022-08-20T02:32:26;3.17;;;2.30;;
8230;SDS011;4156;50.908;6.974;2022-08-20T02:34:52;4.60;;;2.73;;
8230;SDS011;4156;50.908;6.974;2022-08-20T02:37:18;3.33;;;3.00;;
8230;SDS011;4156;50.908;6.974;2022-08-20T02:39:44;4.20;;;2.77;;
8230;SDS011;4156;50.908;6.974;2022-08-20T02:42:10;2.97;;;2.70;;
8230;SDS011;4156;50.908;6.974;2022-08-20T02:44:36;3.13;;;2.67;;
8230;SDS011;4156;50.908;6.974;2022-08-20T02:47:03;2.97;;;2.57;;
8230;SDS011;4156;50.908;6.974;2022-08-20T02:49:29;5.07;;;2.40;;
8230;SDS011;4156;50.908;6.974;2022-08-20T02:51:55;3.93;;;3.20;;
8230;SDS011;4156;50.908;6.974;2022-08-20T02:54:21;2.80;;;2.50;;
8230;SDS011;4156;50.908;6.974;2022-08-20T02:56:46;3.50;;;2.80;;
8230;SDS011;4156;50.908;6.974;2022-08-20T02:59:12;4.97;;;3.30;;
8230;SDS011;4156;50.908;6.974;2022-08-20T03:01:38;5.40;;;2.90;;
8230;SDS011;4156;50.908;6.974;2022-08-20T03:04:03;3.50;;;2.80;;
8230;SDS011;4156;50.908;6.974;2022-08-20T03:06:30;3.90;;;2.53;;
8230;SDS011;4156;50.908;6.974;2022-08-20T03:08:56;4.17;;;2.87;;
8230;SDS011;4156;50.908;6.974;2022-08-20T03:11:21;3.10;;;2.80;;
8230;SDS011;4156;50.908;6.974;2022-08-20T03:13:47;3.67;;;2.80;;
8230;SDS011;4156;50.908;6.974;2022-08-20T03:16:13;3.67;;;2.87;;
8230;SDS011;4156;50.908;6.974;2022-08-20T03:18:41;5.20;;;3.00;;
8230;SDS011;4156;50.908;6.974;2022-08-20T03:21:09;4.63;;;3.10;;
8230;SDS011;4156;50.908;6.974;2022-08-20T03:23:36;3.60;;;3.03;;
8230;SDS011;4156;50.908;6.974;2022-08-20T03:26:03;2.93;;;2.60;;
8230;SDS011;4156;50.908;6.974;2022-08-20T03:28:30;4.37;;;3.00;;
8230;SDS011;4156;50.908;6.974;2022-08-20T03:30:56;3.37;;;3.00;;
8230;SDS011;4156;50.908;6.974;2022-08-20T03:33:23;2.87;;;2.67;;
8230;SDS011;4156;50.908;6.974;2022-08-20T03:35:50;5.37;;;3.70;;
8230;SDS011;4156;50.908;6.974;2022-08-20T03:38:16;4.60;;;3.00;;
8230;SDS011;4156;50.908;6.974;2022-08-20T03:40:43;3.97;;;3.33;;
8230;SDS011;4156;50.908;6.974;2022-08-20T03:43:09;3.47;;;2.83;;
8230;SDS011;4156;50.908;6.974;2022-08-20T03:45:36;3.43;;;2.90;;
8230;SDS011;4156;50.908;6.974;2022-08-20T03:48:04;3.13;;;2.50;;
8230;SDS011;4156;50.908;6.974;2022-08-20T03:50:31;5.00;;;3.30;;
8230;SDS011;4156;50.908;6.974;2022-08-20T03:52:57;3.60;;;2.47;;
8230;SDS011;4156;50.908;6.974;2022-08-20T03:55:24;3.40;;;2.73;;
8230;SDS011;4156;50.908;6.974;2022-08-20T03:57:55;3.40;;;2.77;;
8230;SDS011;4156;50.908;6.974;2022-08-20T04:00:31;4.03;;;2.83;;
8230;SDS011;4156;50.908;6.974;2022-08-20T04:03:03;2.97;;;2.67;;
8230;SDS011;4156;50.908;6.974;2022-08-20T04:05:29;3.47;;;3.00;;
8230;SDS011;4156;50.908;6.974;2022-08-20T04:07:56;3.37;;;2.63;;
8230;SDS011;4156;50.908;6.974;2022-08-20T04:10:24;3.30;;;2.80;;
8230;SDS011;4156;50.908;6.974;2022-08-20T04:12:49;4.00;;;3.07;;
8230;SDS011;4156;50.908;6.974;2022-08-20T04:15:16;4.00;;;2.70;;
8230;SDS011;4156;50.908;6.974;2022-08-20T04:17:43;3.57;;;3.00;;
8230;SDS011;4156;50.908;6.974;2022-08-20T04:20:12;3.27;;;2.90;;
8230;SDS011;4156;50.908;6.974;2022-08-20T04:22:43;3.33;;;3.00;;
8230;SDS011;4156;50.908;6.974;2022-08-20T04:25:10;3.50;;;3.07;;
8230;SDS011;4156;50.908;6.974;2022-08-20T04:27:36;3.70;;;3.37;;
8230;SDS011;4156;50.908;6.974;2022-08-20T04:30:04;4.33;;;3.53;;
8230;SDS011;4156;50.908;6.974;2022-08-20T04:32:32;4.03;;;3.50;;
8230;SDS011;4156;50.908;6.974;2022-08-20T04:35:01;4.90;;;3.70;;
8230;SDS011;4156;50.908;6.974;2022-08-20T04:37:28;5.13;;;3.63;;
8230;SDS011;4156;50.908;6.974;2022-08-20T04:39:54;4.30;;;3.60;;
8230;SDS011;4156;50.908;6.974;2022-08-20T04:42:38;4.23;;;3.37;;
8230;SDS011;4156;50.908;6.974;2022-08-20T04:45:04;7.80;;;4.40;;
8230;SDS011;4156;50.908;6.974;2022-08-20T04:47:30;4.50;;;3.53;;
8230;SDS011;4156;50.908;6.974;2022-08-20T04:49:56;4.37;;;3.53;;
8230;SDS011;4156;50.908;6.974;2022-08-20T04:52:26;3.87;;;3.40;;
8230;SDS011;4156;50.908;6.974;2022-08-20T04:54:52;4.57;;;3.80;;
8230;SDS011;4156;50.908;6.974;2022-08-20T04:57:20;4.50;;;3.13;;
8230;SDS011;4156;50.908;6.974;2022-08-20T04:59:46;3.47;;;2.90;;
8230;SDS011;4156;50.908;6.974;2022-08-20T05:02:12;3.80;;;3.40;;
8230;SDS011;4156;50.908;6.974;2022-08-20T05:04:37;6.57;;;3.83;;
8230;SDS011;4156;50.908;6.974;2022-08-20T05:07:03;3.97;;;3.57;;
8230;SDS011;4156;50.908;6.974;2022-08-20T05:09:28;4.83;;;3.40;;
8230;SDS011;4156;50.908;6.974;2022-08-20T05:11:56;4.43;;;3.63;;
8230;SDS011;4156;50.908;6.974;2022-08-20T05:14:22;5.37;;;3.60;;
8230;SDS011;4156;50.908;6.974;2022-08-20T05:16:47;5.03;;;4.47;;
8230;SDS011;4156;50.908;6.974;2022-08-20T05:19:14;5.00;;;4.10;;
8230;SDS011;4156;50.908;6.974;2022-08-20T05:21:41;5.50;;;4.37;;
8230;SDS011;4156;50.908;6.974;2022-08-20T05:24:07;5.37;;;4.50;;
8230;SDS011;4156;50.908;6.974;2022-08-20T05:26:34;5.30;;;4.80;;
8230;SDS011;4156;50.908;6.974;2022-08-20T05:28:59;6.00;;;4.87;;
8230;SDS011;4156;50.908;6.974;2022-08-20T05:31:26;8.17;;;6.60;;
8230;SDS011;4156;50.908;6.974;2022-08-20T05:33:52;7.07;;;6.27;;
8230;SDS011;4156;50.908;6.974;2022-08-20T05:36:20;7.13;;;6.43;;
8230;SDS011;4156;50.908;6.974;2022-08-20T05:38:46;7.90;;;7.10;;
8230;SDS011;4156;50.908;6.974;2022-08-20T05:41:12;7.77;;;7.07;;
8230;SDS011;4156;50.908;6.974;2022-08-20T05:43:37;9.57;;;8.63;;
8230;SDS011;4156;50.908;6.974;2022-08-20T05:46:03;10.53;;;9.43;;
8230;SDS011;4156;50.908;6.974;2022-08-20T05:48:29;9.60;;;8.70;;
8230;SDS011;4156;50.908;6.974;2022-08-20T05:50:55;7.67;;;6.93;;
8230;SDS011;4156;50.908;6.974;2022-08-20T05:53:21;9.23;;;8.23;;
8230;SDS011;4156;50.908;6.974;2022-08-20T05:55:48;10.27;;;9.27;;
8230;SDS011;4156;50.908;6.974;2022-08-20T05:58:22;9.90;;;8.90;;
8230;SDS011;4156;50.908;6.974;2022-08-20T06:00:50;10.57;;;9.20;;
8230;SDS011;4156;50.908;6.974;2022-08-20T06:03:17;10.27;;;9.17;;
8230;SDS011;4156;50.908;6.974;2022-08-20T06:06:02;11.47;;;10.27;;
8230;SDS011;4156;50.908;6.974;2022-08-20T06:08:29;10.17;;;8.57;;
8230;SDS011;4156;50.908;6.974;2022-08-20T06:10:54;12.07;;;10.70;;
8230;SDS011;4156;50.908;6.974;2022-08-20T06:13:21;11.90;;;10.50;;
8230;SDS011;4156;50.908;6.974;2022-08-20T06:15:46;11.93;;;10.67;;
8230;SDS011;4156;50.908;6.974;2022-08-20T06:18:12;12.50;;;10.73;;
8230;SDS011;4156;50.908;6.974;2022-08-20T06:20:38;12.37;;;10.83;;
8230;SDS011;4156;50.908;6.974;2022-08-20T06:23:04;10.07;;;8.97;;
8230;SDS011;4156;50.908;6.974;2022-08-20T06:25:31;12.57;;;10.40;;
8230;SDS011;4156;50.908;6.974;2022-08-20T06:27:59;14.47;;;11.80;;
8230;SDS011;4156;50.908;6.974;2022-08-20T06:30:25;10.40;;;9.33;;
8230;SDS011;4156;50.908;6.974;2022-08-20T06:32:50;12.67;;;11.37;;
8230;SDS011;4156;50.908;6.974;2022-08-20T06:35:16;12.40;;;10.60;;
8230;SDS011;4156;50.908;6.974;2022-08-20T06:37:41;13.50;;;11.87;;
8230;SDS011;4156;50.908;6.974;2022-08-20T06:42:33;13.20;;;11.80;;
8230;SDS011;4156;50.908;6.974;2022-08-20T06:44:59;11.93;;;10.67;;
8230;SDS011;4156;50.908;6.974;2022-08-20T06:47:28;13.87;;;12.13;;
8230;SDS011;4156;50.908;6.974;2022-08-20T06:49:55;13.27;;;11.87;;
8230;SDS011;4156;50.908;6.974;2022-08-20T06:52:20;10.83;;;9.77;;
8230;SDS011;4156;50.908;6.974;2022-08-20T06:54:46;10.97;;;9.57;;
8230;SDS011;4156;50.908;6.974;2022-08-20T06:57:12;10.97;;;9.77;;
8230;SDS011;4156;50.908;6.974;2022-08-20T06:59:37;11.67;;;10.43;;
8230;SDS011;4156;50.908;6.974;2022-08-20T07:02:03;10.50;;;9.37;;
8230;SDS011;4156;50.908;6.974;2022-08-20T07:04:29;10.97;;;9.87;;
8230;SDS011;4156;50.908;6.974;2022-08-20T07:06:55;10.93;;;9.07;;
8230;SDS011;4156;50.908;6.974;2022-08-20T07:09:21;10.97;;;9.30;;
8230;SDS011;4156;50.908;6.974;2022-08-20T07:11:48;12.80;;;9.93;;
8230;SDS011;4156;50.908;6.974;2022-08-20T07:14:15;8.73;;;7.83;;
8230;SDS011;4156;50.908;6.974;2022-08-20T07:16:41;12.70;;;8.73;;
8230;SDS011;4156;50.908;6.974;2022-08-20T07:19:07;9.17;;;8.27;;
8230;SDS011;4156;50.908;6.974;2022-08-20T07:21:34;10.83;;;8.57;;
8230;SDS011;4156;50.908;6.974;2022-08-20T07:23:59;9.63;;;8.67;;
8230;SDS011;4156;50.908;6.974;2022-08-20T07:26:25;11.00;;;9.90;;
8230;SDS011;4156;50.908;6.974;2022-08-20T07:28:50;9.30;;;8.10;;
8230;SDS011;4156;50.908;6.974;2022-08-20T07:31:16;9.77;;;8.27;;
8230;SDS011;4156;50.908;6.974;2022-08-20T07:34:01;9.90;;;8.90;;
8230;SDS011;4156;50.908;6.974;2022-08-20T07:36:27;11.57;;;7.50;;
8230;SDS011;4156;50.908;6.974;2022-08-20T07:38:52;11.00;;;8.03;;
8230;SDS011;4156;50.908;6.974;2022-08-20T07:41:18;8.30;;;6.37;;
8230;SDS011;4156;50.908;6.974;2022-08-20T07:43:44;7.00;;;6.20;;
8230;SDS011;4156;50.908;6.974;2022-08-20T07:46:11;6.20;;;5.43;;
8230;SDS011;4156;50.908;6.974;2022-08-20T07:48:40;6.93;;;4.97;;
8230;SDS011;4156;50.908;6.974;2022-08-20T07:51:10;5.10;;;4.47;;
8230;SDS011;4156;50.908;6.974;2022-08-20T07:53:37;7.80;;;5.90;;
8230;SDS011;4156;50.908;6.974;2022-08-20T07:56:04;10.57;;;6.43;;
8230;SDS011;4156;50.908;6.974;2022-08-20T07:58:32;9.30;;;8.35;;
8230;SDS011;4156;50.908;6.974;2022-08-20T08:00:59;13.83;;;6.97;;
8230;SDS011;4156;50.908;6.974;2022-08-20T08:03:25;7.00;;;6.23;;
8230;SDS011;4156;50.908;6.974;2022-08-20T08:05:52;7.13;;;6.13;;
8230;SDS011;4156;50.908;6.974;2022-08-20T08:08:20;6.17;;;5.57;;
8230;SDS011;4156;50.908;6.974;2022-08-20T08:10:50;6.73;;;4.87;;
8230;SDS011;4156;50.908;6.974;2022-08-20T08:13:19;7.67;;;4.77;;
8230;SDS011;4156;50.908;6.974;2022-08-20T08:15:50;4.37;;;3.97;;
8230;SDS011;4156;50.908;6.974;2022-08-20T08:18:18;6.27;;;5.13;;
8230;SDS011;4156;50.908;6.974;2022-08-20T08:20:48;6.73;;;5.03;;
8230;SDS011;4156;50.908;6.974;2022-08-20T08:23:17;6.80;;;5.60;;
8230;SDS011;4156;50.908;6.974;2022-08-20T08:25:44;5.93;;;5.30;;
8230;SDS011;4156;50.908;6.974;2022-08-20T08:28:11;7.33;;;5.27;;
8230;SDS011;4156;50.908;6.974;2022-08-20T08:30:38;6.50;;;5.80;;
8230;SDS011;4156;50.908;6.974;2022-08-20T08:33:06;7.87;;;6.13;;
8230;SDS011;4156;50.908;6.974;2022-08-20T08:35:51;7.57;;;5.73;;
8230;SDS011;4156;50.908;6.974;2022-08-20T08:38:18;8.87;;;6.10;;
8230;SDS011;4156;50.908;6.974;2022-08-20T08:40:45;8.57;;;6.07;;
8230;SDS011;4156;50.908;6.974;2022-08-20T08:43:12;5.87;;;4.37;;
8230;SDS011;4156;50.908;6.974;2022-08-20T08:45:40;7.27;;;5.57;;
8230;SDS011;4156;50.908;6.974;2022-08-20T08:48:10;8.80;;;6.97;;
8230;SDS011;4156;50.908;6.974;2022-08-20T08:50:37;8.17;;;5.27;;
8230;SDS011;4156;50.908;6.974;2022-08-20T08:53:07;7.47;;;4.90;;
8230;SDS011;4156;50.908;6.974;2022-08-20T08:55:39;7.33;;;5.30;;
8230;SDS011;4156;50.908;6.974;2022-08-20T08:58:05;7.83;;;4.93;;
8230;SDS011;4156;50.908;6.974;2022-08-20T09:00:30;8.57;;;5.63;;
8230;SDS011;4156;50.908;6.974;2022-08-20T09:03:08;8.37;;;5.20;;
8230;SDS011;4156;50.908;6.974;2022-08-20T09:05:43;7.47;;;5.37;;
8230;SDS011;4156;50.908;6.974;2022-08-20T09:08:13;9.03;;;5.57;;
8230;SDS011;4156;50.908;6.974;2022-08-20T09:10:43;6.43;;;5.80;;
8230;SDS011;4156;50.908;6.974;2022-08-20T09:13:09;8.73;;;6.37;;
8230;SDS011;4156;50.908;6.974;2022-08-20T09:15:34;8.80;;;6.00;;
8230;SDS011;4156;50.908;6.974;2022-08-20T09:18:00;6.90;;;5.27;;
8230;SDS011;4156;50.908;6.974;2022-08-20T09:20:25;9.23;;;6.67;;
8230;SDS011;4156;50.908;6.974;2022-08-20T09:22:51;8.20;;;6.20;;
8230;SDS011;4156;50.908;6.974;2022-08-20T09:25:17;12.23;;;6.60;;
8230;SDS011;4156;50.908;6.974;2022-08-20T09:27:43;7.57;;;5.60;;
8230;SDS011;4156;50.908;6.974;2022-08-20T09:30:10;7.67;;;6.00;;
8230;SDS011;4156;50.908;6.974;2022-08-20T09:32:36;7.43;;;5.37;;
8230;SDS011;4156;50.908;6.974;2022-08-20T09:35:01;9.53;;;5.90;;
8230;SDS011;4156;50.908;6.974;2022-08-20T09:37:28;6.80;;;5.77;;
8230;SDS011;4156;50.908;6.974;2022-08-20T09:39:55;19.00;;;7.73;;
8230;SDS011;4156;50.908;6.974;2022-08-20T09:42:25;7.60;;;6.10;;
8230;SDS011;4156;50.908;6.974;2022-08-20T09:44:55;9.40;;;6.37;;
8230;SDS011;4156;50.908;6.974;2022-08-20T09:47:21;16.33;;;6.43;;
8230;SDS011;4156;50.908;6.974;2022-08-20T09:49:47;9.37;;;6.40;;
8230;SDS011;4156;50.908;6.974;2022-08-20T09:52:19;8.67;;;5.70;;
8230;SDS011;4156;50.908;6.974;2022-08-20T09:54:57;10.27;;;6.40;;
8230;SDS011;4156;50.908;6.974;2022-08-20T09:57:24;9.23;;;6.77;;
8230;SDS011;4156;50.908;6.974;2022-08-20T09:59:52;8.03;;;6.53;;
8230;SDS011;4156;50.908;6.974;2022-08-20T10:02:21;8.07;;;6.70;;
8230;SDS011;4156;50.908;6.974;2022-08-20T10:04:47;8.70;;;6.67;;
8230;SDS011;4156;50.908;6.974;2022-08-20T10:07:13;9.20;;;6.57;;
8230;SDS011;4156;50.908;6.974;2022-08-20T10:09:39;9.27;;;7.13;;
8230;SDS011;4156;50.908;6.974;2022-08-20T10:12:04;12.23;;;7.50;;
8230;SDS011;4156;50.908;6.974;2022-08-20T10:14:30;11.73;;;8.93;;
8230;SDS011;4156;50.908;6.974;2022-08-20T10:16:59;12.83;;;8.53;;
8230;SDS011;4156;50.908;6.974;2022-08-20T10:19:28;12.63;;;8.20;;
8230;SDS011;4156;50.908;6.974;2022-08-20T10:21:55;7.97;;;7.00;;
8230;SDS011;4156;50.908;6.974;2022-08-20T10:24:22;10.43;;;7.13;;
8230;SDS011;4156;50.908;6.974;2022-08-20T10:26:48;12.17;;;6.80;;
8230;SDS011;4156;50.908;6.974;2022-08-20T10:29:13;9.03;;;6.10;;
8230;SDS011;4156;50.908;6.974;2022-08-20T10:31:39;6.90;;;5.17;;
8230;SDS011;4156;50.908;6.974;2022-08-20T10:34:05;8.00;;;5.83;;
8230;SDS011;4156;50.908;6.974;2022-08-20T10:36:31;9.50;;;6.80;;
8230;SDS011;4156;50.908;6.974;2022-08-20T10:38:56;8.70;;;6.00;;
8230;SDS011;4156;50.908;6.974;2022-08-20T10:41:22;11.27;;;6.60;;
8230;SDS011;4156;50.908;6.974;2022-08-20T10:43:47;9.23;;;6.03;;
8230;SDS011;4156;50.908;6.974;2022-08-20T10:46:14;10.17;;;5.90;;
8230;SDS011;4156;50.908;6.974;2022-08-20T10:48:40;8.63;;;5.70;;
8230;SDS011;4156;50.908;6.974;2022-08-20T10:51:05;9.80;;;5.93;;
8230;SDS011;4156;50.908;6.974;2022-08-20T10:53:31;8.63;;;5.47;;
8230;SDS011;4156;50.908;6.974;2022-08-20T10:55:56;6.63;;;5.07;;
8230;SDS011;4156;50.908;6.974;2022-08-20T10:58:23;7.13;;;5.00;;
8230;SDS011;4156;50.908;6.974;2022-08-20T11:00:50;5.17;;;4.30;;
8230;SDS011;4156;50.908;6.974;2022-08-20T11:03:16;8.03;;;5.03;;
8230;SDS011;4156;50.908;6.974;2022-08-20T11:05:42;7.63;;;5.03;;
8230;SDS011;4156;50.908;6.974;2022-08-20T11:08:08;8.13;;;5.13;;
8230;SDS011;4156;50.908;6.974;2022-08-20T11:10:34;7.53;;;4.73;;
8230;SDS011;4156;50.908;6.974;2022-08-20T11:13:01;8.43;;;5.07;;
8230;SDS011;4156;50.908;6.974;2022-08-20T11:15:28;6.40;;;4.17;;
8230;SDS011;4156;50.908;6.974;2022-08-20T11:17:54;5.87;;;3.70;;
8230;SDS011;4156;50.908;6.974;2022-08-20T11:20:20;6.60;;;4.50;;
8230;SDS011;4156;50.908;6.974;2022-08-20T11:22:49;6.40;;;4.07;;
8230;SDS011;4156;50.908;6.974;2022-08-20T11:25:14;7.00;;;4.33;;
8230;SDS011;4156;50.908;6.974;2022-08-20T11:27:41;5.30;;;3.93;;
8230;SDS011;4156;50.908;6.974;2022-08-20T11:30:10;6.87;;;5.20;;
8230;SDS011;4156;50.908;6.974;2022-08-20T11:32:39;6.53;;;4.47;;
8230;SDS011;4156;50.908;6.974;2022-08-20T11:35:05;6.83;;;3.93;;
8230;SDS011;4156;50.908;6.974;2022-08-20T11:37:31;6.87;;;4.07;;
8230;SDS011;4156;50.908;6.974;2022-08-20T11:39:57;6.87;;;4.07;;
8230;SDS011;4156;50.908;6.974;2022-08-20T11:42:22;7.20;;;4.23;;
8230;SDS011;4156;50.908;6.974;2022-08-20T11:44:48;5.70;;;4.10;;
8230;SDS011;4156;50.908;6.974;2022-08-20T11:47:24;8.53;;;4.47;;
8230;SDS011;4156;50.908;6.974;2022-08-20T11:50:12;5.07;;;3.67;;
8230;SDS011;4156;50.908;6.974;2022-08-20T11:52:40;5.60;;;3.50;;
8230;SDS011;4156;50.908;6.974;2022-08-20T11:55:06;3.93;;;3.20;;
8230;SDS011;4156;50.908;6.974;2022-08-20T11:57:35;5.67;;;3.30;;
8230;SDS011;4156;50.908;6.974;2022-08-20T12:00:03;5.27;;;3.93;;
8230;SDS011;4156;50.908;6.974;2022-08-20T12:02:33;4.90;;;3.57;;
8230;SDS011;4156;50.908;6.974;2022-08-20T12:04:58;9.90;;;4.20;;
8230;SDS011;4156;50.908;6.974;2022-08-20T12:07:24;6.20;;;4.47;;
8230;SDS011;4156;50.908;6.974;2022-08-20T12:09:50;7.43;;;4.03;;
8230;SDS011;4156;50.908;6.974;2022-08-20T12:12:17;5.90;;;4.03;;
8230;SDS011;4156;50.908;6.974;2022-08-20T12:14:44;7.17;;;4.40;;
8230;SDS011;4156;50.908;6.974;2022-08-20T12:17:12;11.03;;;4.97;;
8230;SDS011;4156;50.908;6.974;2022-08-20T12:19:41;6.63;;;4.77;;
8230;SDS011;4156;50.908;6.974;2022-08-20T12:22:07;7.27;;;4.00;;
8230;SDS011;4156;50.908;6.974;2022-08-20T12:24:33;6.60;;;4.80;;
8230;SDS011;4156;50.908;6.974;2022-08-20T12:29:39;4.70;;;3.93;;
8230;SDS011;4156;50.908;6.974;2022-08-20T12:32:06;8.43;;;4.53;;
8230;SDS011;4156;50.908;6.974;2022-08-20T12:34:36;6.20;;;4.70;;
8230;SDS011;4156;50.908;6.974;2022-08-20T12:37:04;6.90;;;5.27;;
8230;SDS011;4156;50.908;6.974;2022-08-20T12:39:36;9.17;;;5.40;;
8230;SDS011;4156;50.908;6.974;2022-08-20T12:42:03;6.23;;;4.33;;
8230;SDS011;4156;50.908;6.974;2022-08-20T12:44:29;7.40;;;4.53;;
8230;SDS011;4156;50.908;6.974;2022-08-20T12:49:30;5.90;;;4.37;;
8230;SDS011;4156;50.908;6.974;2022-08-20T12:51:55;5.47;;;4.77;;
8230;SDS011;4156;50.908;6.974;2022-08-20T12:54:21;6.90;;;5.63;;
8230;SDS011;4156;50.908;6.974;2022-08-20T12:56:46;6.97;;;4.90;;
8230;SDS011;4156;50.908;6.974;2022-08-20T12:59:12;7.57;;;4.73;;
8230;SDS011;4156;50.908;6.974;2022-08-20T13:01:37;8.43;;;5.23;;
8230;SDS011;4156;50.908;6.974;2022-08-20T13:04:03;8.03;;;4.70;;
8230;SDS011;4156;50.908;6.974;2022-08-20T13:06:28;9.77;;;5.87;;
8230;SDS011;4156;50.908;6.974;2022-08-20T13:08:54;5.97;;;4.53;;
8230;SDS011;4156;50.908;6.974;2022-08-20T13:11:20;7.47;;;4.30;;
8230;SDS011;4156;50.908;6.974;2022-08-20T13:13:45;7.50;;;4.63;;
8230;SDS011;4156;50.908;6.974;2022-08-20T13:16:11;8.60;;;4.67;;
8230;SDS011;4156;50.908;6.974;2022-08-20T13:18:38;6.43;;;4.70;;
8230;SDS011;4156;50.908;6.974;2022-08-20T13:21:03;8.83;;;4.60;;
8230;SDS011;4156;50.908;6.974;2022-08-20T13:23:29;6.43;;;4.40;;
8230;SDS011;4156;50.908;6.974;2022-08-20T13:25:55;6.83;;;5.20;;
8230;SDS011;4156;50.908;6.974;2022-08-20T13:28:20;6.30;;;4.80;;
8230;SDS011;4156;50.908;6.974;2022-08-20T13:30:46;9.53;;;5.50;;
8230;SDS011;4156;50.908;6.974;2022-08-20T13:33:11;8.63;;;4.60;;
8230;SDS011;4156;50.908;6.974;2022-08-20T13:35:37;8.57;;;4.43;;
8230;SDS011;4156;50.908;6.974;2022-08-20T13:38:02;7.50;;;4.10;;
8230;SDS011;4156;50.908;6.974;2022-08-20T13:40:28;7.83;;;4.57;;
8230;SDS011;4156;50.908;6.974;2022-08-20T13:42:54;8.70;;;4.47;;
8230;SDS011;4156;50.908;6.974;2022-08-20T13:45:20;6.93;;;3.80;;
8230;SDS011;4156;50.908;6.974;2022-08-20T13:47:46;8.60;;;3.53;;
8230;SDS011;4156;50.908;6.974;2022-08-20T13:50:18;7.20;;;3.70;;
8230;SDS011;4156;50.908;6.974;2022-08-20T13:52:44;9.50;;;3.30;;
8230;SDS011;4156;50.908;6.974;2022-08-20T13:55:11;7.40;;;3.40;;
8230;SDS011;4156;50.908;6.974;2022-08-20T13:57:39;7.17;;;3.47;;
8230;SDS011;4156;50.908;6.974;2022-08-20T14:00:06;5.23;;;3.37;;
8230;SDS011;4156;50.908;6.974;2022-08-20T14:02:36;8.73;;;3.83;;
8230;SDS011;4156;50.908;6.974;2022-08-20T14:05:02;5.47;;;3.60;;
8230;SDS011;4156;50.908;6.974;2022-08-20T14:07:28;6.87;;;3.20;;
8230;SDS011;4156;50.908;6.974;2022-08-20T14:09:56;11.17;;;2.90;;
8230;SDS011;4156;50.908;6.974;2022-08-20T14:12:23;4.63;;;2.80;;
8230;SDS011;4156;50.908;6.974;2022-08-20T14:14:49;4.30;;;2.57;;
8230;SDS011;4156;50.908;6.974;2022-08-20T14:17:21;5.80;;;2.83;;
8230;SDS011;4156;50.908;6.974;2022-08-20T14:19:49;4.53;;;2.50;;
8230;SDS011;4156;50.908;6.974;2022-08-20T14:22:15;6.33;;;2.47;;
8230;SDS011;4156;50.908;6.974;2022-08-20T14:24:41;5.47;;;2.40;;
8230;SDS011;4156;50.908;6.974;2022-08-20T14:27:08;4.53;;;2.13;;
8230;SDS011;4156;50.908;6.974;2022-08-20T14:29:34;5.53;;;2.70;;
8230;SDS011;4156;50.908;6.974;2022-08-20T14:32:01;6.87;;;3.57;;
8230;SDS011;4156;50.908;6.974;2022-08-20T14:34:28;10.53;;;2.93;;
8230;SDS011;4156;50.908;6.974;2022-08-20T14:36:54;6.03;;;2.67;;
8230;SDS011;4156;50.908;6.974;2022-08-20T14:39:21;7.87;;;2.87;;
8230;SDS011;4156;50.908;6.974;2022-08-20T14:41:49;4.97;;;2.47;;
8230;SDS011;4156;50.908;6.974;2022-08-20T14:44:15;7.33;;;2.80;;
8230;SDS011;4156;50.908;6.974;2022-08-20T14:46:40;4.53;;;2.47;;
8230;SDS011;4156;50.908;6.974;2022-08-20T14:49:06;7.53;;;2.30;;
8230;SDS011;4156;50.908;6.974;2022-08-20T14:51:31;8.40;;;2.53;;
8230;SDS011;4156;50.908;6.974;2022-08-20T14:53:57;5.63;;;3.00;;
8230;SDS011;4156;50.908;6.974;2022-08-20T14:56:22;4.17;;;2.37;;
8230;SDS011;4156;50.908;6.974;2022-08-20T14:58:48;4.97;;;2.37;;
8230;SDS011;4156;50.908;6.974;2022-08-20T15:01:14;4.37;;;2.10;;
8230;SDS011;4156;50.908;6.974;2022-08-20T15:03:40;6.67;;;2.10;;
8230;SDS011;4156;50.908;6.974;2022-08-20T15:06:05;5.10;;;2.00;;
8230;SDS011;4156;50.908;6.974;2022-08-20T15:08:31;4.83;;;2.17;;
8230;SDS011;4156;50.908;6.974;2022-08-20T15:10:57;4.03;;;2.10;;
8230;SDS011;4156;50.908;6.974;2022-08-20T15:13:22;5.53;;;1.90;;
8230;SDS011;4156;50.908;6.974;2022-08-20T15:15:48;5.17;;;2.40;;
8230;SDS011;4156;50.908;6.974;2022-08-20T15:18:13;4.53;;;2.27;;
8230;SDS011;4156;50.908;6.974;2022-08-20T15:20:39;3.33;;;1.87;;
8230;SDS011;4156;50.908;6.974;2022-08-20T15:23:04;6.40;;;2.17;;
8230;SDS011;4156;50.908;6.974;2022-08-20T15:25:31;4.90;;;2.07;;